createdAt,value
2018-02-18T00:01:37.360Z,95496
2018-02-18T00:04:05.699Z,95498
2018-02-18T00:06:34.820Z,95512
2018-02-18T00:09:03.189Z,95510
2018-02-18T00:11:32.233Z,95503
2018-02-18T00:14:00.548Z,95497
2018-02-18T00:16:29.619Z,95505
2018-02-18T00:18:57.896Z,95508
2018-02-18T00:21:26.208Z,95516
2018-02-18T00:23:55.332Z,95511
2018-02-18T00:26:23.621Z,95529
2018-02-18T00:28:51.925Z,95529
2018-02-18T00:31:20.220Z,95532
2018-02-18T00:33:49.289Z,95535
2018-02-18T00:36:17.569Z,95542
2018-02-18T00:38:45.865Z,95538
2018-02-18T00:41:14.921Z,95548
2018-02-18T00:43:43.182Z,95555
2018-02-18T00:46:11.453Z,95561
2018-02-18T00:48:39.742Z,95563
2018-02-18T00:51:08.001Z,95564
2018-02-18T00:53:36.282Z,95563
2018-02-18T00:56:04.552Z,95577
2018-02-18T00:58:32.821Z,95588
2018-02-18T01:01:01.101Z,95583
2018-02-18T01:03:29.392Z,95585
2018-02-18T01:05:57.689Z,95577
2018-02-18T01:08:25.997Z,95588
2018-02-18T01:10:55.016Z,95607
2018-02-18T01:13:23.305Z,95608
2018-02-18T01:15:51.612Z,95611
2018-02-18T01:18:19.923Z,95603
2018-02-18T01:20:48.970Z,95605
2018-02-18T01:23:17.264Z,95604
2018-02-18T01:25:45.585Z,95602
2018-02-18T01:28:14.627Z,95612
2018-02-18T01:30:42.874Z,95618
2018-02-18T01:33:11.163Z,95619
2018-02-18T01:35:39.444Z,95615
2018-02-18T01:38:07.722Z,95623
2018-02-18T01:40:36.003Z,95623
2018-02-18T01:43:05.042Z,95626
2018-02-18T01:45:34.116Z,95643
2018-02-18T01:48:02.412Z,95649
2018-02-18T01:50:37.433Z,95639
2018-02-18T01:53:05.726Z,95642
2018-02-18T01:55:34.028Z,95647
2018-02-18T01:58:02.288Z,95644
2018-02-18T02:00:30.588Z,95639
2018-02-18T02:02:58.903Z,95649
2018-02-18T02:05:27.172Z,95655
2018-02-18T02:07:55.520Z,95639
2018-02-18T02:10:23.828Z,95653
2018-02-18T02:12:53.660Z,95655
2018-02-18T02:15:22.706Z,95653
2018-02-18T02:17:51.004Z,95650
2018-02-18T02:20:19.324Z,95650
2018-02-18T02:22:48.380Z,95648
2018-02-18T02:25:17.445Z,95647
2018-02-18T02:27:45.744Z,95654
2018-02-18T02:30:14.722Z,95670
2018-02-18T02:32:43.068Z,95668
2018-02-18T02:35:11.377Z,95667
2018-02-18T02:37:40.551Z,95669
2018-02-18T02:40:08.881Z,95668
2018-02-18T02:42:37.281Z,95672
2018-02-18T02:45:06.422Z,95679
2018-02-18T02:47:34.810Z,95687
2018-02-18T02:50:03.186Z,95692
2018-02-18T02:52:31.567Z,95699
2018-02-18T02:54:59.993Z,95698
2018-02-18T02:57:28.388Z,95698
2018-02-18T02:59:56.784Z,95706
2018-02-18T03:02:25.127Z,95717
2018-02-18T03:04:54.222Z,95710
2018-02-18T03:07:23.366Z,95702
2018-02-18T03:09:51.745Z,95708
2018-02-18T03:12:20.102Z,95720
2018-02-18T03:14:48.462Z,95720
2018-02-18T03:17:16.826Z,95728
2018-02-18T03:19:46.015Z,95724
2018-02-18T03:22:15.122Z,95719
2018-02-18T03:24:44.221Z,95726
2018-02-18T03:27:13.367Z,95733
2018-02-18T03:29:41.745Z,95736
2018-02-18T03:32:10.184Z,95734
2018-02-18T03:34:38.521Z,95739
2018-02-18T03:37:06.882Z,95740
2018-02-18T03:39:35.222Z,95734
2018-02-18T03:42:03.593Z,95735
2018-02-18T03:44:31.983Z,95731
2018-02-18T03:47:00.354Z,95739
2018-02-18T03:49:28.699Z,95745
2018-02-18T03:51:57.049Z,95744
2018-02-18T03:54:25.382Z,95747
2018-02-18T03:56:53.734Z,95750
2018-02-18T03:59:22.062Z,95750
2018-02-18T04:01:50.490Z,95743
2018-02-18T04:04:18.822Z,95755
2018-02-18T04:06:47.142Z,95751
2018-02-18T04:09:15.564Z,95747
2018-02-18T04:11:43.925Z,95742
2018-02-18T04:14:12.234Z,95743
2018-02-18T04:16:40.575Z,95748
2018-02-18T04:19:09.702Z,95745
2018-02-18T04:21:38.105Z,95746
2018-02-18T04:24:06.471Z,95742
2018-02-18T04:26:34.842Z,95749
2018-02-18T04:29:03.162Z,95754
2018-02-18T04:31:31.505Z,95756
2018-02-18T04:33:59.902Z,95746
2018-02-18T04:36:29.030Z,95750
2018-02-18T04:38:58.143Z,95752
2018-02-18T04:41:26.458Z,95748
2018-02-18T04:43:54.802Z,95751
2018-02-18T04:46:23.203Z,95748
2018-02-18T04:48:51.546Z,95743
2018-02-18T04:51:19.895Z,95752
2018-02-18T04:53:48.246Z,95750
2018-02-18T04:56:16.605Z,95752
2018-02-18T04:58:45.002Z,95757
2018-02-18T05:01:13.321Z,95762
2018-02-18T05:03:42.449Z,95764
2018-02-18T05:06:10.802Z,95767
2018-02-18T05:08:39.930Z,95764
2018-02-18T05:11:08.322Z,95764
2018-02-18T05:13:36.686Z,95775
2018-02-18T05:16:05.014Z,95770
2018-02-18T05:18:34.114Z,95774
2018-02-18T05:21:03.218Z,95780
2018-02-18T05:23:32.430Z,95783
2018-02-18T05:26:00.762Z,95789
2018-02-18T05:28:29.107Z,95793
2018-02-18T05:30:57.406Z,95788
2018-02-18T05:33:26.486Z,95786
2018-02-18T05:35:55.623Z,95796
2018-02-18T05:38:24.808Z,95798
2018-02-18T05:40:53.114Z,95797
2018-02-18T05:43:22.178Z,95800
2018-02-18T05:45:50.508Z,95798
2018-02-18T05:48:18.947Z,95801
2018-02-18T05:50:47.408Z,95811
2018-02-18T05:53:15.730Z,95812
2018-02-18T05:55:44.256Z,95809
2018-02-18T05:58:13.339Z,95814
2018-02-18T06:00:41.706Z,95817
2018-02-18T06:03:10.018Z,95815
2018-02-18T06:05:38.331Z,95814
2018-02-18T06:08:07.424Z,95820
2018-02-18T06:10:36.523Z,95815
2018-02-18T06:13:05.169Z,95823
2018-02-18T06:15:33.494Z,95824
2018-02-18T06:18:01.899Z,95826
2018-02-18T06:20:30.226Z,95837
2018-02-18T06:22:59.318Z,95839
2018-02-18T06:25:27.657Z,95842
2018-02-18T06:27:55.974Z,95849
2018-02-18T06:30:25.054Z,95843
2018-02-18T06:32:53.365Z,95847
2018-02-18T06:35:21.666Z,95848
2018-02-18T06:37:50.024Z,95853
2018-02-18T06:40:18.340Z,95857
2018-02-18T06:42:46.639Z,95852
2018-02-18T06:45:14.952Z,95851
2018-02-18T06:47:44.036Z,95863
2018-02-18T06:50:12.431Z,95863
2018-02-18T06:52:40.749Z,95862
2018-02-18T06:55:09.070Z,95862
2018-02-18T06:57:38.157Z,95859
2018-02-18T07:00:07.241Z,95859
2018-02-18T07:02:35.643Z,95856
2018-02-18T07:05:03.982Z,95856
2018-02-18T07:07:32.298Z,95859
2018-02-18T07:10:00.739Z,95853
2018-02-18T07:12:29.124Z,95860
2018-02-18T07:14:57.647Z,95863
2018-02-18T07:17:26.011Z,95859
2018-02-18T07:19:55.256Z,95859
2018-02-18T07:22:23.701Z,95864
2018-02-18T07:24:52.156Z,95869
2018-02-18T07:27:21.286Z,95864
2018-02-18T07:29:49.598Z,95872
2018-02-18T07:32:17.902Z,95873
2018-02-18T07:34:46.996Z,95879
2018-02-18T07:37:16.101Z,95875
2018-02-18T07:39:45.257Z,95874
2018-02-18T07:42:13.567Z,95880
2018-02-18T07:44:42.650Z,95871
2018-02-18T07:47:11.093Z,95876
2018-02-18T07:49:39.406Z,95878
2018-02-18T07:52:07.842Z,95882
2018-02-18T07:54:36.154Z,95882
2018-02-18T07:57:04.443Z,95878
2018-02-18T07:59:32.743Z,95881
2018-02-18T08:02:01.790Z,95874
2018-02-18T08:04:30.170Z,95879
2018-02-18T08:06:58.473Z,95878
2018-02-18T08:09:26.888Z,95884
2018-02-18T08:11:55.233Z,95886
2018-02-18T08:14:23.532Z,95883
2018-02-18T08:16:51.915Z,95890
2018-02-18T08:19:20.227Z,95888
2018-02-18T08:21:49.352Z,95891
2018-02-18T08:24:17.648Z,95893
2018-02-18T08:26:46.758Z,95890
2018-02-18T08:29:15.136Z,95889
2018-02-18T08:31:43.454Z,95895
2018-02-18T08:34:11.782Z,95892
2018-02-18T08:36:40.124Z,95893
2018-02-18T08:39:08.446Z,95893
2018-02-18T08:44:11.392Z,95891
2018-02-18T08:46:39.782Z,95892
2018-02-18T08:49:08.137Z,95889
2018-02-18T08:51:36.674Z,95892
2018-02-18T08:54:05.778Z,95883
2018-02-18T08:56:34.123Z,95878
2018-02-18T08:59:02.496Z,95883
2018-02-18T09:01:30.847Z,95885
2018-02-18T09:03:59.288Z,95884
2018-02-18T09:06:27.595Z,95881
2018-02-18T09:08:55.947Z,95885
2018-02-18T09:11:24.324Z,95882
2018-02-18T09:13:52.782Z,95886
2018-02-18T09:16:21.884Z,95887
2018-02-18T09:18:51.004Z,95887
2018-02-18T09:21:19.338Z,95896
2018-02-18T09:23:47.758Z,95901
2018-02-18T09:26:16.178Z,95896
2018-02-18T09:28:44.515Z,95899
2018-02-18T09:31:12.891Z,124146
2018-02-18T09:33:41.226Z,124146
2018-02-18T09:36:09.660Z,124146
2018-02-18T09:38:37.962Z,124146
2018-02-18T09:41:06.351Z,124146
2018-02-18T09:43:34.664Z,124146
2018-02-18T09:46:03.763Z,124146
2018-02-18T09:48:32.946Z,124146
2018-02-18T09:51:03.018Z,124146
2018-02-18T09:53:31.326Z,124146
2018-02-18T09:55:59.680Z,95922
2018-02-18T09:58:28.011Z,95922
2018-02-18T10:00:56.383Z,95923
2018-02-18T10:03:25.484Z,95928
2018-02-18T10:05:53.799Z,95926
2018-02-18T10:08:22.878Z,95923
2018-02-18T10:10:51.187Z,95928
2018-02-18T10:13:19.763Z,95923
2018-02-18T10:15:48.094Z,95921
2018-02-18T10:18:17.322Z,95920
2018-02-18T10:20:45.734Z,95918
2018-02-18T10:23:14.063Z,95921
2018-02-18T10:25:42.486Z,95921
2018-02-18T10:28:10.999Z,95919
2018-02-18T10:30:40.139Z,124146
2018-02-18T10:33:08.486Z,124146
2018-02-18T10:35:36.948Z,124146
2018-02-18T10:38:06.129Z,124146
2018-02-18T10:40:34.596Z,124146
2018-02-18T10:43:02.920Z,124146
2018-02-18T10:45:31.222Z,124146
2018-02-18T10:47:59.602Z,124146
2018-02-18T10:50:27.995Z,124146
2018-02-18T10:52:56.326Z,124146
2018-02-18T10:55:25.424Z,124146
2018-02-18T10:57:53.761Z,124146
2018-02-18T11:00:22.126Z,124146
2018-02-18T11:02:50.524Z,124146
2018-02-18T11:05:18.862Z,124146
2018-02-18T11:07:47.215Z,124146
2018-02-18T11:10:15.589Z,124146
2018-02-18T11:12:43.947Z,124146
2018-02-18T11:15:13.086Z,124146
2018-02-18T11:17:41.443Z,124146
2018-02-18T11:20:09.910Z,124146
2018-02-18T11:22:39.003Z,124146
2018-02-18T11:25:08.103Z,124146
2018-02-18T11:27:37.246Z,124146
2018-02-18T11:30:05.651Z,124146
2018-02-18T11:32:33.967Z,124146
2018-02-18T11:35:02.337Z,124146
2018-02-18T11:37:31.434Z,124146
2018-02-18T11:39:59.832Z,124146
2018-02-18T11:42:28.258Z,95876
2018-02-18T11:44:56.603Z,95879
2018-02-18T11:47:24.894Z,95872
2018-02-18T11:49:53.220Z,95877
2018-02-18T11:52:22.370Z,95873
2018-02-18T11:54:50.693Z,95865
2018-02-18T11:57:19.807Z,95871
2018-02-18T11:59:48.139Z,95863
2018-02-18T12:02:16.489Z,95866
2018-02-18T12:04:44.858Z,95859
2018-02-18T12:07:13.267Z,95857
2018-02-18T12:09:41.731Z,95856
2018-02-18T12:12:10.137Z,95863
2018-02-18T12:14:38.450Z,95855
2018-02-18T12:17:06.826Z,95848
2018-02-18T12:19:35.184Z,95848
2018-02-18T12:22:04.294Z,95851
2018-02-18T12:24:32.597Z,95850
2018-02-18T12:27:00.954Z,124146
2018-02-18T12:29:30.413Z,124146
2018-02-18T12:31:58.753Z,124146
2018-02-18T12:34:27.913Z,124146
2018-02-18T12:36:57.003Z,124146
2018-02-18T12:46:09.133Z,95764
2018-02-18T12:48:37.595Z,95759
2018-02-18T12:51:05.924Z,95758
2018-02-18T12:53:34.245Z,95760
2018-02-18T12:56:02.599Z,95758
2018-02-18T12:58:30.921Z,95753
2018-02-18T13:00:59.332Z,95754
2018-02-18T13:03:27.852Z,95757
2018-02-18T13:05:56.132Z,95758
2018-02-18T13:08:24.475Z,95760
2018-02-18T13:10:52.794Z,95752
2018-02-18T13:13:22.062Z,95754
2018-02-18T13:15:50.412Z,95761
2018-02-18T13:18:19.497Z,95748
2018-02-18T13:20:48.594Z,95756
2018-02-18T13:23:17.702Z,95748
2018-02-18T13:25:46.867Z,95754
2018-02-18T13:28:15.186Z,95751
2018-02-18T13:30:43.504Z,95748
2018-02-18T13:33:11.835Z,95747
2018-02-18T13:35:40.134Z,95742
2018-02-18T13:38:08.507Z,95740
2018-02-18T13:40:36.865Z,95742
2018-02-18T13:43:05.231Z,95741
2018-02-18T13:45:34.319Z,95738
2018-02-18T13:48:03.392Z,95740
2018-02-18T13:50:31.746Z,95738
2018-02-18T13:53:00.084Z,95751
2018-02-18T13:55:29.185Z,95751
2018-02-18T13:57:57.537Z,95746
2018-02-18T14:00:26.635Z,95753
2018-02-18T14:02:55.771Z,95754
2018-02-18T14:05:24.098Z,95749
2018-02-18T14:07:52.419Z,95741
2018-02-18T14:10:20.765Z,95750
2018-02-18T14:12:49.842Z,95753
2018-02-18T14:15:18.208Z,95758
2018-02-18T14:17:46.525Z,95754
2018-02-18T14:20:15.637Z,95757
2018-02-18T14:22:44.015Z,95749
2018-02-18T14:25:12.331Z,95749
2018-02-18T14:27:40.705Z,95746
2018-02-18T14:30:09.780Z,95741
2018-02-18T14:32:38.180Z,95726
2018-02-18T14:35:06.584Z,95731
2018-02-18T14:37:35.685Z,95750
2018-02-18T14:40:04.914Z,95745
2018-02-18T14:42:51.174Z,95751
2018-02-18T14:45:37.346Z,95739
2018-02-18T14:48:23.589Z,95738
2018-02-18T14:51:09.862Z,95741
2018-02-18T14:53:56.170Z,95752
2018-02-18T14:56:42.886Z,95750
2018-02-18T14:59:11.979Z,95751
2018-02-18T15:01:41.071Z,95751
2018-02-18T15:04:10.175Z,95757
2018-02-18T15:06:39.322Z,95756
2018-02-18T15:09:07.760Z,95757
2018-02-18T15:11:36.087Z,95757
2018-02-18T15:14:04.499Z,95755
2018-02-18T15:16:33.626Z,95754
2018-02-18T15:19:02.059Z,95756
2018-02-18T15:21:30.504Z,95761
2018-02-18T15:23:58.817Z,95756
2018-02-18T15:26:28.048Z,95760
2018-02-18T15:28:56.346Z,95757
2018-02-18T15:31:24.797Z,95761
2018-02-18T15:33:53.955Z,95759
2018-02-18T15:36:22.314Z,95762
2018-02-18T15:38:50.679Z,95764
2018-02-18T15:41:19.042Z,95758
2018-02-18T15:43:47.371Z,95755
2018-02-18T15:46:15.779Z,95758
2018-02-18T15:48:44.902Z,95757
2018-02-18T15:51:13.230Z,95761
2018-02-18T15:53:41.667Z,95756
2018-02-18T15:56:10.007Z,95758
2018-02-18T15:58:39.158Z,95758
2018-02-18T16:01:07.506Z,95758
2018-02-18T16:03:35.875Z,95759
2018-02-18T16:06:04.239Z,95763
2018-02-18T16:08:33.357Z,95763
2018-02-18T16:11:01.760Z,95765
2018-02-18T16:13:30.076Z,95769
2018-02-18T16:15:59.186Z,95766
2018-02-18T16:18:28.299Z,95766
2018-02-18T16:20:56.642Z,95768
2018-02-18T16:23:25.048Z,95765
2018-02-18T16:25:53.383Z,95759
2018-02-18T16:28:21.747Z,95760
2018-02-18T16:30:50.157Z,95767
2018-02-18T16:33:19.261Z,95756
2018-02-18T16:35:48.471Z,95762
2018-02-18T16:38:16.792Z,95759
2018-02-18T16:40:45.891Z,95761
2018-02-18T16:43:14.310Z,95761
2018-02-18T16:45:42.618Z,95760
2018-02-18T16:48:10.995Z,95762
2018-02-18T16:50:39.350Z,95762
2018-02-18T16:53:08.451Z,95764
2018-02-18T16:55:36.860Z,95759
2018-02-18T16:58:05.214Z,95764
2018-02-18T17:00:33.629Z,95760
2018-02-18T17:03:01.984Z,95760
2018-02-18T17:05:30.494Z,95755
2018-02-18T17:07:59.023Z,95758
2018-02-18T17:10:28.246Z,95760
2018-02-18T17:12:56.847Z,95760
2018-02-18T17:15:25.287Z,95766
2018-02-18T17:17:54.519Z,95765
2018-02-18T17:20:22.996Z,95763
2018-02-18T17:22:51.476Z,95761
2018-02-18T17:25:20.161Z,95761
2018-02-18T17:27:48.687Z,95765
2018-02-18T17:30:17.002Z,95762
2018-02-18T17:32:45.331Z,95756
2018-02-18T17:35:13.660Z,95759
2018-02-18T17:37:42.072Z,95755
2018-02-18T17:40:10.384Z,95753
2018-02-18T17:42:39.483Z,95750
2018-02-18T17:45:08.591Z,95752
2018-02-18T17:47:37.702Z,95706
2018-02-18T17:50:06.140Z,95748
2018-02-18T17:52:34.462Z,95747
2018-02-18T17:55:02.835Z,95746
2018-02-18T17:57:31.177Z,95747
2018-02-18T17:59:59.523Z,95749
2018-02-18T18:02:27.972Z,95754
2018-02-18T18:04:56.351Z,95752
2018-02-18T18:07:24.666Z,95748
2018-02-18T18:09:53.010Z,95752
2018-02-18T18:12:21.302Z,95749
2018-02-18T18:14:49.701Z,95753
2018-02-18T18:17:18.034Z,95746
2018-02-18T18:19:46.758Z,95744
2018-02-18T18:22:15.083Z,95745
2018-02-18T18:24:43.406Z,95743
2018-02-18T18:27:11.785Z,95737
2018-02-18T18:29:40.108Z,95734
2018-02-18T18:32:09.210Z,95733
2018-02-18T18:34:38.318Z,95738
2018-02-18T18:37:07.282Z,95727
2018-02-18T18:39:36.669Z,95728
2018-02-18T18:42:04.983Z,95726
2018-02-18T18:44:33.327Z,95724
2018-02-18T18:47:01.641Z,95727
2018-02-18T18:49:29.998Z,95727
2018-02-18T18:51:59.165Z,95726
2018-02-18T18:54:27.489Z,95725
2018-02-18T18:56:55.836Z,95726
2018-02-18T18:59:24.162Z,95726
2018-02-18T19:01:52.471Z,95718
2018-02-18T19:04:20.899Z,95711
2018-02-18T19:06:49.358Z,95710
2018-02-18T19:09:18.527Z,95707
2018-02-18T19:11:47.111Z,95706
2018-02-18T19:14:15.434Z,95706
2018-02-18T19:16:43.828Z,95702
2018-02-18T19:19:12.174Z,95700
2018-02-18T19:21:41.275Z,95699
2018-02-18T19:24:10.357Z,95698
2018-02-18T19:26:39.480Z,95696
2018-02-18T19:29:07.842Z,95689
2018-02-18T19:31:36.919Z,95684
2018-02-18T19:34:05.278Z,95684
2018-02-18T19:36:33.596Z,95685
2018-02-18T19:39:02.705Z,95684
2018-02-18T19:41:31.071Z,95684
2018-02-18T19:43:59.420Z,95681
2018-02-18T19:46:27.758Z,95685
2018-02-18T19:48:56.124Z,95680
2018-02-18T19:51:24.476Z,95680
2018-02-18T19:53:53.675Z,95683
2018-02-18T19:56:22.791Z,95673
2018-02-18T19:58:51.120Z,95671
2018-02-18T20:01:19.438Z,95675
2018-02-18T20:03:47.792Z,95673
2018-02-18T20:06:16.991Z,95677
2018-02-18T20:08:46.079Z,95677
2018-02-18T20:11:15.200Z,95668
2018-02-18T20:13:43.562Z,95673
2018-02-18T20:16:12.711Z,95674
2018-02-18T20:18:41.090Z,95676
2018-02-18T20:21:09.396Z,95671
2018-02-18T20:23:37.763Z,95669
2018-02-18T20:26:06.097Z,95661
2018-02-18T20:28:34.439Z,95665
2018-02-18T20:31:02.843Z,95659
2018-02-18T20:33:31.199Z,95665
2018-02-18T20:36:00.336Z,95665
2018-02-18T20:38:28.736Z,95663
2018-02-18T20:40:57.075Z,95660
2018-02-18T20:43:25.559Z,95655
2018-02-18T20:45:54.902Z,95654
2018-02-18T20:48:23.243Z,95650
2018-02-18T20:50:51.579Z,95651
2018-02-18T20:53:19.924Z,95647
2018-02-18T20:55:48.349Z,95642
2018-02-18T20:58:17.446Z,95636
2018-02-18T21:00:46.559Z,95633
2018-02-18T21:03:14.884Z,95637
2018-02-18T21:05:43.211Z,95634
2018-02-18T21:08:11.595Z,95626
2018-02-18T21:10:40.022Z,95625
2018-02-18T21:13:08.355Z,95619
2018-02-18T21:15:36.682Z,95619
2018-02-18T21:18:05.036Z,95615
2018-02-18T21:20:33.427Z,95618
2018-02-18T21:23:01.810Z,95614
2018-02-18T21:25:30.636Z,95607
2018-02-18T21:27:59.735Z,95613
2018-02-18T21:30:28.860Z,95613
2018-02-18T21:32:57.268Z,95614
2018-02-18T21:35:25.698Z,95612
2018-02-18T21:37:54.006Z,95605
2018-02-18T21:40:22.314Z,95600
2018-02-18T21:42:50.698Z,95597
2018-02-18T21:45:19.106Z,95603
2018-02-18T21:47:47.498Z,95602
2018-02-18T21:50:15.805Z,95605
2018-02-18T21:52:44.168Z,95602
2018-02-18T21:55:12.513Z,95600
2018-02-18T21:57:40.910Z,95600
2018-02-18T22:00:09.317Z,95598
2018-02-18T22:02:37.668Z,95595
2018-02-18T22:05:06.006Z,95589
2018-02-18T22:07:34.354Z,95580
2018-02-18T22:10:02.752Z,95583
2018-02-18T22:12:31.082Z,95577
2018-02-18T22:14:59.415Z,95577
2018-02-18T22:17:28.522Z,95570
2018-02-18T22:19:57.617Z,95577
2018-02-18T22:22:26.771Z,95581
2018-02-18T22:24:55.166Z,95574
2018-02-18T22:27:23.502Z,95583
2018-02-18T22:29:51.839Z,95582
2018-02-18T22:32:20.965Z,95577
2018-02-18T22:34:49.334Z,95578
2018-02-18T22:37:17.661Z,95576
2018-02-18T22:39:45.969Z,95575
2018-02-18T22:42:15.048Z,95577
2018-02-18T22:44:43.385Z,95574
2018-02-18T22:47:11.759Z,95568
2018-02-18T22:49:40.066Z,95573
2018-02-18T22:52:08.409Z,95577
2018-02-18T22:54:36.759Z,95573
2018-02-18T22:57:05.862Z,95572
2018-02-18T22:59:34.235Z,95571
2018-02-18T23:02:03.321Z,95566
2018-02-18T23:04:32.407Z,95568
2018-02-18T23:07:07.363Z,95565
2018-02-18T23:09:35.658Z,95558
2018-02-18T23:12:04.036Z,95565
2018-02-18T23:14:32.383Z,95566
2018-02-18T23:17:01.470Z,95560
2018-02-18T23:19:30.563Z,95559
2018-02-18T23:21:59.667Z,95556
2018-02-18T23:24:28.804Z,95551
2018-02-18T23:26:57.159Z,95547
2018-02-18T23:29:25.502Z,95540
2018-02-18T23:31:53.830Z,95540
2018-02-18T23:34:22.182Z,95536
2018-02-18T23:36:51.308Z,95535
2018-02-18T23:39:19.640Z,95537
2018-02-18T23:41:48.743Z,95535
2018-02-18T23:44:17.815Z,95532
2018-02-18T23:46:46.127Z,95536
2018-02-18T23:49:14.471Z,95529
2018-02-18T23:51:42.784Z,95532
2018-02-18T23:54:11.107Z,95532
2018-02-18T23:56:39.438Z,95535
2018-02-18T23:59:07.909Z,95528
